Portada
METAR-TAF:

METAR-TAF

Aeroports :

Myrtle Beach, Carolina del Sud, Estats Units d'Amèrica

latitud: 33-41N, longitud: 078-56W, altitud: 8 m

Observació

L'informe es va fer fa 23 minuts, a les 13:35 UTC
Vent 3 kt del Nord-Est
Temperatura 9°C
Humitat 87%
Pressió 1011 hPa
Visibilitat: 16.1 km
Núvols disperses a una alçada de 2300 ft

METAR: KMYR 191335Z 05003KT 10SM SCT023 09/07 A2986 RMK AO2

Hora: 08:58 (13:58 UTC)

Pronòstic

L'informe es va fer fa 2 hores i 38 minuts, a les 11:20 UTC
Pronòstic vàlid del 19 a les 12 UTC al 20 a les 12 UTC
Vent 3 kt del Nord/Nord-Est
Visibilitat: 10 km
Cel ennuvolat a una alçada de 2500 ft
A partir de les 19 a les 1400 UTC
Vent 3 kt amb direcció variable
Visibilitat: 10 km
Cel ennuvolat a una alçada de 12000 ft
A partir de les 19 a les 2100 UTC
Vent 6 kt del Oest/Nord-Oest
Visibilitat: 10 km
Núvols disperses a una alçada de 25000 ft

TAF: KMYR 191120Z 1912/2012 03003KT P6SM BKN025 FM191400 VRB03KT P6SM BKN120 FM192100 30006KT P6SM SCT250

Observacions i pronòstics meteorològics de més de 4000 aeroports (METAR i TAF).

Les estacions disponibles són els punts grocs i vermells al mapa.

Posi el ratolí al punt desitjat per veure el nom de l'estació.

Feu clic per veure les observacions i els pronòstics meteorològics.

Per canviar el mapa: feu clic els botons verds amb una creu de color negre per apropar; al botó verd amb un guió per allunyar la imatge; o en les fletxes verdes per a mapes adjacents.


METAR-TAF: